Time;durP1;ratioP1;P1;durP2;ratioP2;P2;SDS_P1;SDS_P2;PMS_P1;PMS_P2;Temp;Humidity;BMP_temperature;BMP_pressure;BME280_temperature;BME280_humidity;BME280_pressure;Samples;Min_cycle;Max_cycle;Signal;HPM_P1;HPM_P2
2022/04/06 00:01:47;;;;;;;1.40;1.00;;;10.70;99.90;;;;;;5052181;28;20021;-75
2022/04/06 00:04:14;;;;;;;1.35;1.20;;;10.80;99.90;;;;;;5052821;28;20025;-74
2022/04/06 00:06:39;;;;;;;1.20;1.10;;;10.80;99.90;;;;;;5052186;28;20082;-73
2022/04/06 00:09:05;;;;;;;2.08;1.20;;;10.80;99.90;;;;;;5052681;28;20032;-73
2022/04/06 00:11:31;;;;;;;1.60;1.50;;;10.80;99.90;;;;;;5051928;28;20049;-74
2022/04/06 00:13:57;;;;;;;1.38;1.10;;;10.80;99.90;;;;;;5052432;28;20024;-74
2022/04/06 00:16:23;;;;;;;1.30;0.90;;;10.80;99.90;;;;;;5052682;28;20036;-75
2022/04/06 00:18:49;;;;;;;2.05;0.90;;;10.80;99.90;;;;;;5051279;28;20100;-75
2022/04/06 00:21:14;;;;;;;1.20;1.10;;;10.80;99.90;;;;;;5051879;28;20492;-75
2022/04/06 00:23:40;;;;;;;1.55;1.00;;;10.80;99.90;;;;;;5052188;28;20056;-74
2022/04/06 00:26:06;;;;;;;1.58;0.93;;;10.90;99.90;;;;;;5052239;28;20021;-74
2022/04/06 00:28:32;;;;;;;1.10;0.98;;;10.90;99.90;;;;;;5051556;28;20078;-74
2022/04/06 00:30:58;;;;;;;1.58;1.20;;;10.90;99.90;;;;;;5051801;28;20044;-74
2022/04/06 00:33:23;;;;;;;1.73;1.10;;;10.90;99.90;;;;;;5052147;28;20021;-75
2022/04/06 00:36:08;;;;;;;1.42;0.98;;;10.90;99.90;;;;;;5051743;28;20029;-74
2022/04/06 00:38:33;;;;;;;1.00;0.90;;;11.00;99.90;;;;;;5051464;28;20032;-74
2022/04/06 00:40:59;;;;;;;1.10;1.00;;;11.00;99.90;;;;;;5052182;28;20386;-74
2022/04/06 00:43:25;;;;;;;1.48;1.05;;;11.00;99.90;;;;;;5051545;28;20405;-75
2022/04/06 00:45:50;;;;;;;1.85;1.35;;;11.00;99.90;;;;;;5051036;28;20483;-74
2022/04/06 00:48:16;;;;;;;1.23;0.93;;;11.00;99.90;;;;;;5051915;28;20052;-75
2022/04/06 00:50:42;;;;;;;1.10;1.00;;;11.00;99.90;;;;;;5051562;28;20505;-74
2022/04/06 00:53:08;;;;;;;0.70;0.70;;;11.10;99.90;;;;;;5051902;28;20025;-74
2022/04/06 00:55:37;;;;;;;1.77;1.10;;;11.10;99.90;;;;;;5049634;28;20079;-73
2022/04/06 00:58:04;;;;;;;0.85;0.85;;;11.10;99.90;;;;;;5051802;28;20052;-74
2022/04/06 01:00:31;;;;;;;1.00;0.90;;;11.10;99.90;;;;;;5051755;28;20059;-74
2022/04/06 01:02:58;;;;;;;0.85;0.75;;;11.10;99.90;;;;;;5051747;28;20025;-75
2022/04/06 01:05:25;;;;;;;1.35;0.90;;;11.10;99.90;;;;;;5051549;28;20045;-75
2022/04/06 01:07:52;;;;;;;1.83;1.00;;;11.10;99.90;;;;;;5051160;28;20041;-74
2022/04/06 01:10:19;;;;;;;1.70;0.90;;;11.10;99.90;;;;;;5051719;28;20064;-74
2022/04/06 01:12:48;;;;;;;1.10;1.00;;;11.10;99.90;;;;;;5050663;28;20033;-74
2022/04/06 01:15:16;;;;;;;1.10;1.00;;;11.10;99.90;;;;;;5051737;28;20029;-73
2022/04/06 01:17:42;;;;;;;1.10;1.00;;;11.10;99.90;;;;;;5051171;28;20028;-74
2022/04/06 01:20:09;;;;;;;1.45;0.85;;;11.10;99.90;;;;;;5051628;28;20025;-75
2022/04/06 01:22:36;;;;;;;1.02;0.80;;;11.10;99.90;;;;;;5051327;28;20033;-73
2022/04/06 01:25:03;;;;;;;1.02;0.93;;;11.10;99.90;;;;;;5051649;28;20033;-74
2022/04/06 01:27:29;;;;;;;1.48;1.13;;;11.20;99.90;;;;;;5051398;28;20029;-74
2022/04/06 01:29:55;;;;;;;1.73;1.00;;;11.20;99.90;;;;;;5050773;28;20028;-74
2022/04/06 01:32:26;;;;;;;1.48;0.88;;;11.10;99.90;;;;;;5053662;28;20048;-74
2022/04/06 01:34:54;;;;;;;1.50;1.02;;;11.10;99.90;;;;;;5054743;28;20060;-74
2022/04/06 01:37:21;;;;;;;1.00;0.90;;;11.20;99.90;;;;;;5055352;28;20102;-74
2022/04/06 01:39:47;;;;;;;0.82;0.80;;;11.20;99.90;;;;;;5054713;28;20025;-74
2022/04/06 01:42:15;;;;;;;0.80;0.80;;;11.20;99.90;;;;;;5055232;28;20036;-74
2022/04/06 01:44:44;;;;;;;1.10;0.90;;;11.30;99.90;;;;;;5054685;28;20075;-74
2022/04/06 01:47:11;;;;;;;1.45;1.20;;;11.30;99.90;;;;;;5055206;28;20432;-74
2022/04/06 01:52:22;;;;;;;0.80;0.80;;;11.30;99.90;;;;;;5055017;28;20051;-74
2022/04/06 01:54:54;;;;;;;0.75;0.70;;;11.30;99.90;;;;;;5054218;28;20025;-74
2022/04/06 01:57:20;;;;;;;1.10;0.93;;;11.30;99.90;;;;;;5055196;28;20037;-75
2022/04/06 01:59:47;;;;;;;1.20;1.00;;;11.30;99.90;;;;;;5054465;28;20095;-75
2022/04/06 02:02:15;;;;;;;0.88;0.80;;;11.30;99.90;;;;;;5054987;28;20381;-74
2022/04/06 02:04:41;;;;;;;1.33;0.88;;;11.40;99.90;;;;;;5054357;28;20104;-73
2022/04/06 02:07:10;;;;;;;1.58;0.80;;;11.40;99.90;;;;;;5054896;28;20025;-74
2022/04/06 02:09:36;;;;;;;1.10;1.00;;;11.40;99.90;;;;;;5054592;28;20108;-71
2022/04/06 02:12:02;;;;;;;0.90;0.90;;;11.40;99.90;;;;;;5054805;28;20123;-73
2022/04/06 02:14:29;;;;;;;0.95;0.80;;;11.40;99.90;;;;;;5054745;28;20362;-75
2022/04/06 02:16:54;;;;;;;1.63;1.10;;;11.50;99.90;;;;;;5053996;28;20441;-73
2022/04/06 02:19:21;;;;;;;1.83;1.08;;;11.40;99.90;;;;;;5054581;28;20056;-75
2022/04/06 02:21:47;;;;;;;1.33;0.90;;;11.40;99.90;;;;;;5053891;28;20029;-74
2022/04/06 02:24:13;;;;;;;1.20;1.00;;;11.40;99.90;;;;;;5054518;28;20029;-74
2022/04/06 02:26:58;;;;;;;1.20;1.10;;;11.50;99.90;;;;;;5053801;28;20040;-72
2022/04/06 02:29:24;;;;;;;1.00;0.80;;;11.50;99.90;;;;;;5054407;28;20040;-73
2022/04/06 02:31:49;;;;;;;1.52;0.95;;;11.50;99.90;;;;;;5053702;28;20041;-73
2022/04/06 02:34:15;;;;;;;1.50;1.17;;;11.50;99.90;;;;;;5053910;28;20036;-73
2022/04/06 02:36:41;;;;;;;1.80;1.17;;;11.50;99.90;;;;;;5053701;28;20025;-73
2022/04/06 02:39:07;;;;;;;1.05;0.95;;;11.50;99.90;;;;;;5054182;28;20135;-74
2022/04/06 02:41:32;;;;;;;1.23;0.98;;;11.50;99.90;;;;;;5053893;28;20029;-73
2022/04/06 02:43:58;;;;;;;2.53;0.95;;;11.50;99.90;;;;;;5053059;28;20025;-73
2022/04/06 02:46:23;;;;;;;2.60;1.20;;;11.50;99.90;;;;;;5053808;28;20032;-74
2022/04/06 02:48:49;;;;;;;1.23;1.10;;;11.50;99.90;;;;;;5053431;28;20063;-73
2022/04/06 02:51:15;;;;;;;1.00;0.90;;;11.50;99.90;;;;;;5053823;28;20110;-73
2022/04/06 02:53:40;;;;;;;1.02;0.93;;;11.50;99.90;;;;;;5053373;28;20454;-73
2022/04/06 02:56:06;;;;;;;0.90;0.80;;;11.50;99.90;;;;;;5053744;28;20056;-74
2022/04/06 02:58:32;;;;;;;3.13;0.80;;;11.50;99.90;;;;;;5053916;28;20416;-73
2022/04/06 03:00:58;;;;;;;1.50;0.80;;;11.40;99.90;;;;;;5053368;28;20118;-73
2022/04/06 03:03:25;;;;;;;0.70;0.70;;;11.40;99.90;;;;;;5053494;28;20391;-74
2022/04/06 03:05:51;;;;;;;0.93;0.88;;;11.50;99.90;;;;;;5053388;28;20041;-74
2022/04/06 03:08:16;;;;;;;1.25;0.73;;;11.50;99.90;;;;;;5053630;28;20025;-74
2022/04/06 03:10:42;;;;;;;0.80;0.70;;;11.50;99.90;;;;;;5053306;28;20084;-72
2022/04/06 03:13:08;;;;;;;1.40;0.80;;;11.50;99.90;;;;;;5053632;28;20521;-73
2022/04/06 03:15:33;;;;;;;0.85;0.85;;;11.50;99.90;;;;;;5053518;28;20477;-74
2022/04/06 03:17:59;;;;;;;1.02;0.90;;;11.40;99.90;;;;;;5052872;28;20060;-73
2022/04/06 03:20:25;;;;;;;0.60;0.60;;;11.50;99.90;;;;;;5053513;28;20400;-74
2022/04/06 03:22:50;;;;;;;0.85;0.85;;;11.40;99.90;;;;;;5052851;28;20021;-73
2022/04/06 03:25:16;;;;;;;1.40;0.98;;;11.50;99.90;;;;;;5053208;28;20028;-73
2022/04/06 03:27:42;;;;;;;1.20;0.60;;;11.50;99.90;;;;;;5052604;28;20133;-72
2022/04/06 03:30:12;;;;;;;0.95;0.73;;;11.50;99.90;;;;;;5053020;28;20474;-75
2022/04/06 03:32:39;;;;;;;1.20;1.02;;;11.50;99.90;;;;;;5053166;28;20075;-74
2022/04/06 03:35:06;;;;;;;0.82;0.82;;;11.50;99.90;;;;;;5052437;28;20024;-74
2022/04/06 03:37:31;;;;;;;0.98;0.88;;;11.50;99.90;;;;;;5053040;28;20079;-75
2022/04/06 03:39:58;;;;;;;2.47;1.00;;;11.50;99.90;;;;;;5052060;28;20421;-73
2022/04/06 03:42:24;;;;;;;1.30;1.00;;;11.50;99.90;;;;;;5052895;28;20039;-73
2022/04/06 03:44:49;;;;;;;2.65;1.20;;;11.50;99.90;;;;;;5052244;28;20112;-73
2022/04/06 03:47:15;;;;;;;1.63;1.00;;;11.50;99.90;;;;;;5052931;28;20078;-74
2022/04/06 03:49:41;;;;;;;1.40;1.00;;;11.40;99.90;;;;;;5052950;28;20032;-74
2022/04/06 03:52:07;;;;;;;1.17;1.08;;;11.50;99.90;;;;;;5052168;28;20351;-73
2022/04/06 03:54:33;;;;;;;1.10;1.00;;;11.40;99.90;;;;;;5052011;28;20029;-73
2022/04/06 03:56:58;;;;;;;1.52;1.00;;;11.40;99.90;;;;;;5051631;28;20067;-73
2022/04/06 03:59:24;;;;;;;1.33;1.10;;;11.40;99.90;;;;;;5052386;28;20441;-74
2022/04/06 04:01:50;;;;;;;1.83;1.17;;;11.40;99.90;;;;;;5051982;28;20029;-74
2022/04/06 04:04:15;;;;;;;3.95;1.10;;;11.30;99.90;;;;;;5052595;28;20119;-74
2022/04/06 04:06:41;;;;;;;2.42;1.10;;;11.40;99.90;;;;;;5052565;28;20029;-74
2022/04/06 04:09:07;;;;;;;3.17;1.00;;;11.30;99.90;;;;;;5052005;28;20025;-73
2022/04/06 04:11:51;;;;;;;1.20;1.00;;;11.40;99.90;;;;;;5052456;28;20033;-74
2022/04/06 04:14:17;;;;;;;1.58;1.27;;;11.30;99.90;;;;;;5052635;28;20117;-74
2022/04/06 04:16:42;;;;;;;1.45;1.10;;;11.30;99.90;;;;;;5052243;28;20111;-74
2022/04/06 04:19:08;;;;;;;2.40;1.20;;;11.30;99.90;;;;;;5051692;28;20032;-73
2022/04/06 04:21:34;;;;;;;1.52;1.20;;;11.20;99.90;;;;;;5052171;28;20025;-74
2022/04/06 04:24:04;;;;;;;1.00;0.90;;;11.20;99.90;;;;;;5051806;28;20052;-74
2022/04/06 04:26:30;;;;;;;1.40;1.00;;;11.20;99.90;;;;;;5052434;28;20421;-74
2022/04/06 04:28:56;;;;;;;1.55;1.40;;;11.20;99.90;;;;;;5050414;28;20025;-74
2022/04/06 04:31:22;;;;;;;2.42;1.40;;;11.10;99.90;;;;;;5052113;28;20090;-74
2022/04/06 04:33:47;;;;;;;1.85;1.25;;;11.10;99.90;;;;;;5050308;28;20373;-73
2022/04/06 04:36:13;;;;;;;1.50;1.10;;;11.10;99.90;;;;;;5052255;28;20025;-73
2022/04/06 04:38:39;;;;;;;2.17;1.30;;;11.10;99.90;;;;;;5051326;28;20064;-75
2022/04/06 04:41:08;;;;;;;2.45;1.88;;;11.10;99.90;;;;;;5050198;28;20064;-73
2022/04/06 04:43:34;;;;;;;4.18;1.60;;;11.10;99.90;;;;;;5052138;28;20052;-75
2022/04/06 04:46:00;;;;;;;2.05;1.58;;;11.10;99.90;;;;;;5051079;28;20537;-73
2022/04/06 04:48:26;;;;;;;2.28;1.58;;;11.20;99.90;;;;;;5049018;28;20104;-73
2022/04/06 04:50:51;;;;;;;3.47;1.80;;;11.20;99.90;;;;;;5050222;28;20037;-73
2022/04/06 04:53:17;;;;;;;2.33;1.85;;;11.20;99.90;;;;;;5051681;28;20025;-73
2022/04/06 04:55:43;;;;;;;4.50;1.88;;;11.20;99.90;;;;;;5050922;28;20045;-73
2022/04/06 04:58:09;;;;;;;2.45;1.60;;;11.20;99.90;;;;;;5051368;28;20044;-73
2022/04/06 05:00:34;;;;;;;1.60;1.50;;;11.20;99.90;;;;;;5051377;28;20120;-74
2022/04/06 05:03:02;;;;;;;1.80;1.40;;;11.20;99.90;;;;;;5050896;28;20025;-73
2022/04/06 05:05:28;;;;;;;2.58;1.90;;;11.20;99.90;;;;;;5051983;28;20036;-73
2022/04/06 05:07:57;;;;;;;2.47;1.50;;;11.20;99.90;;;;;;5055262;28;20021;-72
2022/04/06 05:10:23;;;;;;;5.88;2.03;;;11.20;99.90;;;;;;5055585;28;20029;-74
2022/04/06 05:12:49;;;;;;;3.70;2.03;;;11.20;99.90;;;;;;5055737;28;20373;-73
2022/04/06 05:15:15;;;;;;;3.33;1.83;;;11.20;99.90;;;;;;5055208;28;20489;-75
2022/04/06 05:17:40;;;;;;;4.95;1.80;;;11.20;99.90;;;;;;5055465;28;20029;-74
2022/04/06 05:20:07;;;;;;;3.42;1.73;;;11.30;99.90;;;;;;5054908;28;20021;-73
2022/04/06 05:22:33;;;;;;;4.35;1.83;;;11.20;99.90;;;;;;5055198;28;20100;-73
2022/04/06 05:25:00;;;;;;;3.38;1.80;;;11.30;99.90;;;;;;5054943;28;20116;-72
2022/04/06 05:27:26;;;;;;;2.95;1.70;;;11.30;99.90;;;;;;5041572;28;20113;-73
2022/04/06 05:29:51;;;;;;;4.13;2.08;;;11.30;99.90;;;;;;5035224;28;20519;-74
2022/04/06 05:32:17;;;;;;;3.38;1.83;;;11.30;99.90;;;;;;5035198;28;20037;-73
2022/04/06 05:34:43;;;;;;;2.80;1.70;;;11.30;99.90;;;;;;5035437;28;20035;-74
2022/04/06 05:37:09;;;;;;;3.05;1.92;;;11.40;99.90;;;;;;5035074;28;20032;-73
2022/04/06 05:39:34;;;;;;;2.42;1.60;;;11.40;99.90;;;;;;5035562;28;20033;-74
2022/04/06 05:42:00;;;;;;;3.60;1.95;;;11.40;99.90;;;;;;5034691;28;20033;-73
2022/04/06 05:44:25;;;;;;;4.97;1.80;;;11.50;99.90;;;;;;5050544;28;20074;-74
2022/04/06 05:46:51;;;;;;;1.83;1.50;;;11.50;99.90;;;;;;5035466;28;20040;-73
2022/04/06 05:49:17;;;;;;;3.13;1.70;;;11.50;99.70;;;;;;5035351;28;20022;-74
2022/04/06 05:51:44;;;;;;;2.15;1.50;;;11.60;99.50;;;;;;5035010;28;20518;-74
2022/04/06 05:54:10;;;;;;;2.88;1.50;;;11.60;99.30;;;;;;5034465;28;20033;-74
2022/04/06 05:56:36;;;;;;;2.95;1.65;;;11.70;99.00;;;;;;5035196;28;20049;-74
2022/04/06 05:59:02;;;;;;;4.13;1.58;;;11.70;98.90;;;;;;5034633;28;20045;-74
2022/04/06 06:01:28;;;;;;;2.78;1.90;;;11.70;98.70;;;;;;5035096;28;20117;-74
2022/04/06 06:03:53;;;;;;;2.75;1.73;;;11.70;98.50;;;;;;5034787;28;20105;-73
2022/04/06 06:06:19;;;;;;;2.65;1.70;;;11.80;98.30;;;;;;5034962;28;20037;-74
2022/04/06 06:08:46;;;;;;;2.20;1.27;;;11.80;98.20;;;;;;5035052;28;20031;-75
2022/04/06 06:11:11;;;;;;;2.78;1.20;;;11.90;98.20;;;;;;5034186;28;20026;-75
2022/04/06 06:13:37;;;;;;;1.77;1.40;;;12.00;97.90;;;;;;5034664;28;20026;-75
2022/04/06 06:16:05;;;;;;;2.75;1.70;;;12.10;97.30;;;;;;5034422;28;20029;-74
2022/04/06 06:18:30;;;;;;;3.10;1.80;;;12.20;97.10;;;;;;5034082;28;20068;-74
2022/04/06 06:20:59;;;;;;;2.92;1.73;;;12.20;96.70;;;;;;5034222;28;20505;-74
2022/04/06 06:23:43;;;;;;;2.72;1.67;;;12.30;96.30;;;;;;5034688;28;20091;-74
2022/04/06 06:26:09;;;;;;;2.83;1.73;;;12.40;96.20;;;;;;5034148;28;20104;-75
2022/04/06 06:28:35;;;;;;;1.88;1.60;;;12.50;96.00;;;;;;5034544;28;20060;-73
2022/04/06 06:31:00;;;;;;;6.15;1.60;;;12.70;95.80;;;;;;5033801;28;20037;-73
2022/04/06 06:33:26;;;;;;;2.13;1.45;;;12.90;95.80;;;;;;5034357;28;20022;-74
2022/04/06 06:35:52;;;;;;;2.78;1.50;;;13.20;96.00;;;;;;5034517;28;20171;-74
2022/04/06 06:38:17;;;;;;;2.83;1.60;;;13.60;95.20;;;;;;5033844;28;20025;-74
2022/04/06 06:40:43;;;;;;;2.47;1.38;;;13.90;93.40;;;;;;5047290;28;20025;-74
2022/04/06 06:43:08;;;;;;;4.30;1.50;;;14.30;92.00;;;;;;5053253;28;20131;-74
2022/04/06 06:45:34;;;;;;;3.72;1.45;;;14.60;90.30;;;;;;5053793;28;20025;-74
2022/04/06 06:48:00;;;;;;;1.38;1.20;;;15.00;88.10;;;;;;5053428;28;20100;-74
2022/04/06 06:50:25;;;;;;;1.50;1.40;;;15.40;85.80;;;;;;5052893;28;20120;-73
2022/04/06 06:52:51;;;;;;;1.88;1.30;;;15.80;80.40;;;;;;5054016;28;20083;-74
2022/04/06 06:55:18;;;;;;;2.28;1.30;;;16.00;76.30;;;;;;5053276;28;20347;-73
2022/04/06 06:57:44;;;;;;;1.27;1.17;;;16.00;75.00;;;;;;5053396;28;20037;-75
2022/04/06 07:00:13;;;;;;;2.90;1.30;;;16.00;73.20;;;;;;5052760;28;20047;-74
2022/04/06 07:02:40;;;;;;;2.50;0.82;;;16.10;73.00;;;;;;5053765;28;20039;-73
2022/04/06 07:05:06;;;;;;;0.95;0.95;;;16.60;73.10;;;;;;5053002;28;20025;-74
2022/04/06 07:07:31;;;;;;;2.67;1.42;;;16.90;69.80;;;;;;5053671;28;20112;-75
2022/04/06 07:09:57;;;;;;;1.02;0.90;;;17.10;68.90;;;;;;5053670;28;20462;-74
2022/04/06 07:12:23;;;;;;;2.08;1.25;;;19.10;68.40;;;;;;5053625;28;20076;-74
2022/04/06 07:14:49;;;;;;;2.35;1.08;;;22.00;57.60;;;;;;5053524;28;20021;-73
2022/04/06 07:17:17;;;;;;;1.42;1.02;;;23.30;50.90;;;;;;5052652;28;20386;-73
2022/04/06 07:19:42;;;;;;;3.85;0.90;;;22.40;47.90;;;;;;5053338;28;20057;-74
2022/04/06 07:22:08;;;;;;;0.90;0.75;;;23.60;48.20;;;;;;5052756;28;20525;-73
2022/04/06 07:24:34;;;;;;;2.30;1.05;;;24.00;45.20;;;;;;5052083;28;20489;-74
2022/04/06 07:26:59;;;;;;;1.23;1.00;;;25.00;43.50;;;;;;5052848;28;20024;-73
2022/04/06 07:29:25;;;;;;;1.42;0.85;;;25.80;41.50;;;;;;5053132;28;20103;-74
2022/04/06 07:32:09;;;;;;;3.00;0.90;;;26.20;40.60;;;;;;5051866;28;20033;-74
2022/04/06 07:34:35;;;;;;;0.88;0.60;;;26.30;38.30;;;;;;5052929;28;20031;-74
2022/04/06 07:37:01;;;;;;;0.73;0.70;;;25.50;39.20;;;;;;5052583;28;20111;-72
2022/04/06 07:39:27;;;;;;;1.13;0.80;;;24.20;39.60;;;;;;5053395;28;20033;-74
2022/04/06 07:41:56;;;;;;;2.05;0.60;;;22.40;42.80;;;;;;5052957;28;20048;-74
2022/04/06 07:44:40;;;;;;;0.68;0.68;;;21.80;45.20;;;;;;5052405;28;20040;-75
2022/04/06 07:47:06;;;;;;;1.00;0.70;;;22.20;44.10;;;;;;5051999;28;20465;-74
2022/04/06 07:49:32;;;;;;;1.08;0.80;;;21.50;47.00;;;;;;5052791;28;20033;-74
2022/04/06 07:51:57;;;;;;;1.30;0.80;;;23.40;43.90;;;;;;5052734;28;20033;-75
2022/04/06 07:54:23;;;;;;;1.88;0.50;;;23.60;42.20;;;;;;5052373;28;20042;-75
2022/04/06 07:56:49;;;;;;;0.70;0.63;;;23.80;41.20;;;;;;5052828;28;20056;-74
2022/04/06 07:59:14;;;;;;;1.70;0.75;;;23.40;41.30;;;;;;5052173;28;20032;-74
2022/04/06 08:01:40;;;;;;;1.17;0.75;;;22.40;42.40;;;;;;5053074;28;20029;-74
2022/04/06 08:04:05;;;;;;;3.25;0.88;;;22.40;43.50;;;;;;5052336;28;20018;-74
2022/04/06 08:06:31;;;;;;;0.82;0.70;;;22.70;43.40;;;;;;5052527;28;20040;-75
2022/04/06 08:08:59;;;;;;;1.50;0.77;;;23.60;42.30;;;;;;5052506;28;20100;-75
2022/04/06 08:11:25;;;;;;;1.20;0.63;;;23.70;41.60;;;;;;5051776;28;20036;-74
2022/04/06 08:13:51;;;;;;;1.10;0.70;;;23.40;42.00;;;;;;5052186;28;20059;-73
2022/04/06 08:16:16;;;;;;;1.38;0.50;;;25.10;41.10;;;;;;5051682;28;20025;-73
2022/04/06 08:18:42;;;;;;;0.85;0.60;;;25.70;38.10;;;;;;5052348;28;20036;-75
2022/04/06 08:21:09;;;;;;;1.58;0.70;;;25.80;37.80;;;;;;5051765;28;20083;-74
2022/04/06 08:23:35;;;;;;;0.77;0.70;;;25.10;37.50;;;;;;5052005;28;20075;-74
2022/04/06 08:26:01;;;;;;;1.23;0.70;;;24.60;38.60;;;;;;5052128;28;20108;-75
2022/04/06 08:28:27;;;;;;;0.60;0.60;;;23.90;39.30;;;;;;5051875;28;20131;-74
2022/04/06 08:30:52;;;;;;;1.00;0.60;;;23.60;39.90;;;;;;5052118;28;20075;-74
2022/04/06 08:33:18;;;;;;;1.17;0.35;;;23.20;39.80;;;;;;5051620;28;20078;-73
2022/04/06 08:35:44;;;;;;;0.57;0.50;;;22.60;41.20;;;;;;5051755;28;20363;-75
2022/04/06 08:38:15;;;;;;;1.33;1.05;;;22.30;42.20;;;;;;5051505;28;20021;-74
2022/04/06 08:40:44;;;;;;;1.23;0.63;;;21.90;42.40;;;;;;5051602;28;20033;-75
2022/04/06 08:43:11;;;;;;;0.77;0.77;;;21.50;43.40;;;;;;5051228;28;20044;-73
2022/04/06 08:45:38;;;;;;;0.70;0.55;;;21.30;44.20;;;;;;5051907;28;20432;-75
2022/04/06 08:48:09;;;;;;;2.05;0.80;;;21.00;45.40;;;;;;5051970;28;20078;-75
2022/04/06 08:50:36;;;;;;;1.38;0.98;;;20.90;46.00;;;;;;5051967;28;20377;-74
2022/04/06 08:53:05;;;;;;;1.98;1.00;;;20.90;46.90;;;;;;5051970;28;20029;-74
2022/04/06 08:55:34;;;;;;;4.63;1.30;;;20.90;47.40;;;;;;5051270;28;20059;-73
2022/04/06 08:58:01;;;;;;;4.75;1.23;;;20.80;46.90;;;;;;5050973;28;20029;-73
2022/04/06 09:00:27;;;;;;;3.40;1.17;;;20.70;47.20;;;;;;5051178;28;20082;-74
2022/04/06 09:02:53;;;;;;;1.38;0.70;;;20.60;47.60;;;;;;5051871;28;20095;-74
2022/04/06 09:05:32;;;;;;;1.23;0.80;;;20.40;48.10;;;;;;5050861;28;20351;-74
2022/04/06 09:07:58;;;;;;;3.50;0.70;;;20.20;47.40;;;;;;5051833;28;20113;-73
2022/04/06 09:10:35;;;;;;;1.38;0.63;;;20.00;47.60;;;;;;5051072;28;20096;-73
2022/04/06 09:13:20;;;;;;;2.90;0.50;;;19.80;47.50;;;;;;5051595;28;20033;-75
2022/04/06 09:15:47;;;;;;;2.20;0.70;;;19.50;47.80;;;;;;5051953;28;20116;-74
2022/04/06 09:18:13;;;;;;;0.80;0.50;;;19.40;49.10;;;;;;5051114;28;20060;-74
2022/04/06 09:20:40;;;;;;;0.85;0.60;;;19.30;49.30;;;;;;5051645;28;20112;-74
2022/04/06 09:23:07;;;;;;;1.50;0.70;;;19.20;49.90;;;;;;5051639;28;20029;-74
2022/04/06 09:25:40;;;;;;;2.33;0.50;;;19.30;50.00;;;;;;5051662;28;20086;-74
2022/04/06 09:28:16;;;;;;;1.88;0.68;;;19.30;48.80;;;;;;5051480;28;20485;-74
2022/04/06 09:30:44;;;;;;;0.75;0.43;;;19.30;49.00;;;;;;5051309;28;20029;-75
2022/04/06 09:33:19;;;;;;;0.88;0.50;;;19.30;48.80;;;;;;5050897;28;20103;-73
2022/04/06 09:35:45;;;;;;;1.00;0.65;;;19.30;48.70;;;;;;5051328;28;20052;-75
2022/04/06 09:38:22;;;;;;;0.63;0.50;;;19.40;49.40;;;;;;5050883;28;20062;-72
2022/04/06 09:40:49;;;;;;;2.28;0.60;;;19.50;49.10;;;;;;5051593;28;20021;-73
2022/04/06 09:43:27;;;;;;;2.58;0.80;;;19.50;49.00;;;;;;5050873;28;20023;-73
2022/04/06 09:48:54;;;;;;;2.83;0.50;;;19.70;48.00;;;;;;5051348;28;20455;-74
2022/04/06 09:51:22;;;;;;;0.80;0.38;;;19.60;47.60;;;;;;5050527;28;20056;-74
2022/04/06 09:53:49;;;;;;;0.43;0.40;;;19.80;47.60;;;;;;5054043;28;20052;-74
2022/04/06 09:56:16;;;;;;;0.73;0.50;;;19.80;47.30;;;;;;5053572;28;20049;-74
2022/04/06 09:58:43;;;;;;;0.50;0.40;;;19.80;47.20;;;;;;5054934;28;20564;-74
2022/04/06 10:01:09;;;;;;;2.33;0.60;;;19.80;46.60;;;;;;5054803;28;20446;-73
2022/04/06 10:03:39;;;;;;;2.10;0.47;;;19.80;46.90;;;;;;5054591;28;20025;-74
2022/04/06 10:06:05;;;;;;;2.10;0.40;;;19.80;46.40;;;;;;5055042;28;20032;-73
2022/04/06 10:08:32;;;;;;;1.58;0.50;;;20.00;46.90;;;;;;5053861;28;20037;-74
2022/04/06 10:10:59;;;;;;;1.27;0.47;;;20.10;46.00;;;;;;5054661;28;20397;-75
2022/04/06 10:13:27;;;;;;;1.83;0.50;;;20.20;45.80;;;;;;5054124;28;20025;-73
2022/04/06 10:15:53;;;;;;;0.60;0.50;;;20.30;46.80;;;;;;5054521;28;20043;-74
2022/04/06 10:18:19;;;;;;;0.50;0.47;;;20.40;44.80;;;;;;5054394;28;20033;-73
2022/04/06 10:20:59;;;;;;;1.13;0.60;;;20.40;44.30;;;;;;5054152;28;20035;-73
2022/04/06 10:23:45;;;;;;;1.40;0.43;;;20.50;44.80;;;;;;5053869;28;20484;-73
2022/04/06 10:26:35;;;;;;;2.58;0.40;;;20.50;44.20;;;;;;5054467;28;20067;-73
2022/04/06 10:29:00;;;;;;;0.50;0.50;;;20.50;44.70;;;;;;5053913;28;20045;-74
2022/04/06 10:31:30;;;;;;;1.75;0.60;;;20.50;44.50;;;;;;5053501;28;20067;-74
2022/04/06 10:34:19;;;;;;;1.42;0.40;;;20.60;44.20;;;;;;5054124;28;20029;-74
2022/04/06 10:37:02;;;;;;;1.98;0.40;;;20.60;43.60;;;;;;5054223;28;20052;-75
2022/04/06 10:39:27;;;;;;;1.65;0.30;;;20.60;44.00;;;;;;5053588;28;20131;-73
2022/04/06 10:42:13;;;;;;;1.80;0.60;;;20.60;43.30;;;;;;5054151;28;20128;-74
2022/04/06 10:44:39;;;;;;;1.13;0.50;;;20.50;43.90;;;;;;5054298;28;20056;-75
2022/04/06 10:47:07;;;;;;;3.50;0.50;;;20.40;43.60;;;;;;5053659;28;20528;-74
2022/04/06 10:49:33;;;;;;;0.75;0.40;;;20.40;43.30;;;;;;5053272;28;20029;-73
2022/04/06 10:52:16;;;;;;;0.68;0.45;;;20.30;43.80;;;;;;5053883;28;20133;-74
2022/04/06 10:54:42;;;;;;;0.38;0.32;;;20.30;44.00;;;;;;5053768;28;20520;-74
2022/04/06 10:57:07;;;;;;;2.10;0.50;;;20.30;44.20;;;;;;5054098;28;20045;-74
2022/04/06 10:59:33;;;;;;;1.48;0.30;;;20.40;44.70;;;;;;5053246;28;20025;-74
2022/04/06 11:02:24;;;;;;;3.35;0.90;;;20.50;44.60;;;;;;5053561;28;20467;-74
2022/04/06 11:04:50;;;;;;;0.47;0.40;;;20.70;43.80;;;;;;5052971;28;20327;-74
2022/04/06 11:10:18;;;;;;;3.88;1.38;;;21.10;43.10;;;;;;5052766;28;20079;-73
2022/04/06 11:13:03;;;;;;;0.50;0.50;;;21.20;42.90;;;;;;5053283;28;20366;-74
2022/04/06 11:15:40;;;;;;;0.30;0.30;;;21.20;42.20;;;;;;5052887;28;20025;-74
2022/04/06 11:18:48;;;;;;;1.02;0.70;;;21.20;41.70;;;;;;5053498;28;20033;-74
2022/04/06 11:21:14;;;;;;;2.80;0.50;;;21.20;42.20;;;;;;5053435;28;20063;-73
2022/04/06 11:23:41;;;;;;;0.47;0.40;;;21.30;42.00;;;;;;5052756;28;20390;-76
2022/04/06 11:26:07;;;;;;;0.30;0.25;;;21.30;42.60;;;;;;5053205;28;20021;-75
2022/04/06 11:28:33;;;;;;;0.38;0.38;;;21.40;42.60;;;;;;5052719;28;20140;-73
2022/04/06 11:31:03;;;;;;;2.42;0.57;;;21.40;42.10;;;;;;5053081;28;20041;-74
2022/04/06 11:33:39;;;;;;;0.40;0.40;;;21.50;41.80;;;;;;5052567;28;20050;-74
2022/04/06 11:36:16;;;;;;;0.50;0.40;;;21.50;40.60;;;;;;5053107;28;20174;-75
2022/04/06 11:38:41;;;;;;;1.08;0.40;;;21.50;40.90;;;;;;5052874;28;20039;-75
2022/04/06 11:41:07;;;;;;;0.82;0.40;;;21.50;40.30;;;;;;5053046;28;20032;-74
2022/04/06 11:43:40;;;;;;;1.20;0.60;;;21.50;40.30;;;;;;5052188;28;20029;-74
2022/04/06 11:46:05;;;;;;;0.90;0.40;;;21.40;40.20;;;;;;5053119;28;20033;-75
2022/04/06 11:48:42;;;;;;;0.50;0.50;;;21.20;40.80;;;;;;5052267;28;20075;-74
2022/04/06 11:51:09;;;;;;;1.30;0.40;;;21.10;40.80;;;;;;5052853;28;20036;-74
2022/04/06 11:53:36;;;;;;;2.05;0.73;;;21.00;41.00;;;;;;5052295;28;20031;-74
2022/04/06 11:56:03;;;;;;;1.63;0.80;;;21.00;41.70;;;;;;5052382;28;20053;-74
2022/04/06 11:58:39;;;;;;;1.30;0.70;;;21.00;41.60;;;;;;5052180;28;20029;-74
2022/04/06 12:01:09;;;;;;;2.28;0.70;;;21.00;41.60;;;;;;5052713;28;20025;-74
2022/04/06 12:03:40;;;;;;;1.13;0.70;;;21.00;42.30;;;;;;5051968;28;20033;-74
2022/04/06 12:06:07;;;;;;;3.50;1.07;;;21.00;42.90;;;;;;5052387;28;20437;-74
2022/04/06 12:08:34;;;;;;;2.00;0.70;;;21.10;42.70;;;;;;5052191;28;20033;-74
2022/04/06 12:11:01;;;;;;;1.98;1.00;;;21.10;42.20;;;;;;5052472;28;20366;-75
2022/04/06 12:13:32;;;;;;;2.30;1.75;;;21.10;41.40;;;;;;5051937;28;20501;-74
2022/04/06 12:15:59;;;;;;;1.35;0.90;;;21.20;41.70;;;;;;5051761;28;20029;-75
2022/04/06 12:18:26;;;;;;;3.83;1.45;;;21.10;41.10;;;;;;5051844;28;20489;-74
2022/04/06 12:20:52;;;;;;;3.63;1.35;;;21.00;41.10;;;;;;5052422;28;20021;-74
2022/04/06 12:23:20;;;;;;;1.05;0.82;;;21.00;41.40;;;;;;5052398;28;20028;-74
2022/04/06 12:25:47;;;;;;;1.75;1.42;;;20.90;41.60;;;;;;5052297;28;20029;-74
2022/04/06 12:28:29;;;;;;;3.47;1.13;;;20.70;41.70;;;;;;5052081;28;20544;-74
2022/04/06 12:31:07;;;;;;;3.38;1.20;;;20.60;41.60;;;;;;5052203;28;20126;-76
2022/04/06 12:33:37;;;;;;;3.75;1.30;;;20.30;41.70;;;;;;5051514;28;20029;-73
2022/04/06 12:36:06;;;;;;;1.02;0.98;;;20.20;42.60;;;;;;5051414;28;20033;-75
2022/04/06 12:38:32;;;;;;;4.30;1.33;;;20.10;43.10;;;;;;5051452;28;20029;-74
2022/04/06 12:41:05;;;;;;;1.67;0.93;;;20.10;43.60;;;;;;5052042;28;20086;-74
2022/04/06 12:43:31;;;;;;;2.80;1.20;;;20.00;43.50;;;;;;5051121;28;20056;-73
2022/04/06 12:45:57;;;;;;;2.42;1.33;;;19.90;43.00;;;;;;5051935;28;20017;-73
2022/04/06 12:48:22;;;;;;;1.92;1.45;;;19.90;43.60;;;;;;5051124;28;20469;-73
2022/04/06 12:50:48;;;;;;;3.35;1.35;;;19.80;44.50;;;;;;5051752;28;20425;-74
2022/04/06 12:53:16;;;;;;;2.85;1.30;;;19.80;44.10;;;;;;5051802;28;20036;-74
2022/04/06 12:55:42;;;;;;;1.42;1.33;;;19.80;43.80;;;;;;5051184;28;20049;-74
2022/04/06 12:58:20;;;;;;;2.42;1.70;;;19.70;44.00;;;;;;5051663;28;20047;-74
2022/04/06 13:00:57;;;;;;;2.33;1.85;;;19.60;44.00;;;;;;5050598;28;20025;-73